Terminal Aerodrome Forecast
Issued by NWS Louisville, KY

Home | Current Version | Previous Version | Text Only | Print | Product List | Glossary On
Versions: 1 2 3 4 5 6 7 8 9 10 11 12 13 14 15 16 17 18 19 20 21 22 23 24
980
FTUS43 KLMK 170347 AAA
TAFBWG
TAF AMD
KBWG 170347Z 1704/1724 18010KT 6SM -SHRA VCTS SCT050CB BKN100
      WS020/18048KT
      TEMPO 1704/1708 4SM -TSRA BKN040CB
     FM170800 19013KT 4SM -SHRA VCTS OVC025CB WS020/20050KT
     FM171100 20014KT 6SM BR VCSH OVC012 WS020/21050KT
     FM171600 23012G18KT P6SM OVC015
     FM171900 25010G16KT P6SM SCT025 BKN050=

USA.gov is the U.S. government's official web portal to all federal, state and local government web resources and services.